sensor_id;sensor_type;location;lat;lon;timestamp;pressure;altitude;pressure_sealevel;temperature;humidity
10466;BME280;5280;42.600;23.556;2023-05-03T00:01:54;93740.09;;;11.40;47.97
10466;BME280;5280;42.600;23.556;2023-05-03T00:04:25;93770.41;;;11.47;48.17
10466;BME280;5280;42.600;23.556;2023-05-03T00:06:52;93764.75;;;11.51;48.53
10466;BME280;5280;42.600;23.556;2023-05-03T00:09:22;93758.25;;;11.44;48.97
10466;BME280;5280;42.600;23.556;2023-05-03T00:11:49;93756.44;;;11.34;48.20
10466;BME280;5280;42.600;23.556;2023-05-03T00:14:15;93760.75;;;11.46;49.18
10466;BME280;5280;42.600;23.556;2023-05-03T00:16:42;93777.75;;;11.43;48.50
10466;BME280;5280;42.600;23.556;2023-05-03T00:19:09;93774.84;;;11.35;48.70
10466;BME280;5280;42.600;23.556;2023-05-03T00:21:37;93776.16;;;11.41;48.79
10466;BME280;5280;42.600;23.556;2023-05-03T00:24:04;93765.78;;;11.27;48.88
10466;BME280;5280;42.600;23.556;2023-05-03T00:26:31;93780.00;;;11.26;49.61
10466;BME280;5280;42.600;23.556;2023-05-03T00:28:58;93791.66;;;11.34;50.04
10466;BME280;5280;42.600;23.556;2023-05-03T00:31:25;93787.69;;;11.29;51.66
10466;BME280;5280;42.600;23.556;2023-05-03T00:33:52;93793.38;;;11.11;52.75
10466;BME280;5280;42.600;23.556;2023-05-03T00:36:19;93801.22;;;11.13;52.33
10466;BME280;5280;42.600;23.556;2023-05-03T00:38:47;93782.81;;;11.11;52.61
10466;BME280;5280;42.600;23.556;2023-05-03T00:41:14;93790.63;;;11.13;51.84
10466;BME280;5280;42.600;23.556;2023-05-03T00:43:40;93723.25;;;10.60;52.37
10466;BME280;5280;42.600;23.556;2023-05-03T00:46:08;93801.81;;;11.16;51.24
10466;BME280;5280;42.600;23.556;2023-05-03T00:48:36;93773.25;;;10.98;51.06
10466;BME280;5280;42.600;23.556;2023-05-03T00:51:04;93794.13;;;11.13;51.77
10466;BME280;5280;42.600;23.556;2023-05-03T00:53:32;93766.19;;;10.98;51.83
10466;BME280;5280;42.600;23.556;2023-05-03T00:56:00;93750.31;;;10.98;50.27
10466;BME280;5280;42.600;23.556;2023-05-03T00:58:30;93775.38;;;11.16;50.79
10466;BME280;5280;42.600;23.556;2023-05-03T01:01:01;93775.38;;;11.16;50.68
10466;BME280;5280;42.600;23.556;2023-05-03T01:03:28;93775.72;;;11.12;50.60
10466;BME280;5280;42.600;23.556;2023-05-03T01:06:00;93768.06;;;11.20;50.81
10466;BME280;5280;42.600;23.556;2023-05-03T01:08:33;93767.31;;;11.18;51.38
10466;BME280;5280;42.600;23.556;2023-05-03T01:11:06;93755.41;;;11.12;50.88
10466;BME280;5280;42.600;23.556;2023-05-03T01:13:40;93759.13;;;11.10;50.99
10466;BME280;5280;42.600;23.556;2023-05-03T01:16:15;93749.13;;;11.02;51.25
10466;BME280;5280;42.600;23.556;2023-05-03T01:18:45;93746.75;;;11.10;51.41
10466;BME280;5280;42.600;23.556;2023-05-03T01:21:15;93733.88;;;11.17;51.99
10466;BME280;5280;42.600;23.556;2023-05-03T01:23:52;93723.63;;;11.01;50.97
10466;BME280;5280;42.600;23.556;2023-05-03T01:26:22;93735.69;;;11.05;51.68
10466;BME280;5280;42.600;23.556;2023-05-03T01:28:49;93719.97;;;10.91;50.88
10466;BME280;5280;42.600;23.556;2023-05-03T01:31:21;93728.41;;;10.96;51.14
10466;BME280;5280;42.600;23.556;2023-05-03T01:33:57;93706.75;;;10.80;51.44
10466;BME280;5280;42.600;23.556;2023-05-03T01:36:29;93735.25;;;10.88;51.25
10466;BME280;5280;42.600;23.556;2023-05-03T01:38:59;93727.91;;;10.91;51.57
10466;BME280;5280;42.600;23.556;2023-05-03T01:41:30;93730.84;;;10.99;52.02
10466;BME280;5280;42.600;23.556;2023-05-03T01:43:58;93719.53;;;10.97;52.16
10466;BME280;5280;42.600;23.556;2023-05-03T01:46:25;93704.56;;;10.74;51.69
10466;BME280;5280;42.600;23.556;2023-05-03T01:48:52;93728.69;;;11.04;52.04
10466;BME280;5280;42.600;23.556;2023-05-03T01:51:19;93737.59;;;11.03;52.26
10466;BME280;5280;42.600;23.556;2023-05-03T01:53:50;93731.94;;;11.08;52.61
10466;BME280;5280;42.600;23.556;2023-05-03T01:56:17;93729.91;;;11.11;51.61
10466;BME280;5280;42.600;23.556;2023-05-03T01:58:45;93732.06;;;11.06;51.72
10466;BME280;5280;42.600;23.556;2023-05-03T02:01:12;93723.31;;;11.17;51.90
10466;BME280;5280;42.600;23.556;2023-05-03T02:03:39;93706.94;;;11.12;51.87
10466;BME280;5280;42.600;23.556;2023-05-03T02:06:06;93722.38;;;11.29;52.60
10466;BME280;5280;42.600;23.556;2023-05-03T02:08:33;93687.72;;;11.21;52.84
10466;BME280;5280;42.600;23.556;2023-05-03T02:10:59;93629.25;;;10.91;53.17
10466;BME280;5280;42.600;23.556;2023-05-03T02:13:26;93697.09;;;11.14;52.66
10466;BME280;5280;42.600;23.556;2023-05-03T02:15:54;93690.97;;;11.13;52.15
10466;BME280;5280;42.600;23.556;2023-05-03T02:18:21;93705.38;;;11.09;51.67
10466;BME280;5280;42.600;23.556;2023-05-03T02:20:48;93698.72;;;10.93;53.25
10466;BME280;5280;42.600;23.556;2023-05-03T02:23:15;93693.53;;;10.80;52.96
10466;BME280;5280;42.600;23.556;2023-05-03T02:25:42;93687.16;;;10.83;52.82
10466;BME280;5280;42.600;23.556;2023-05-03T02:28:09;93683.97;;;10.66;52.99
10466;BME280;5280;42.600;23.556;2023-05-03T02:30:36;93666.75;;;10.50;52.97
10466;BME280;5280;42.600;23.556;2023-05-03T02:33:04;93667.94;;;10.46;53.84
10466;BME280;5280;42.600;23.556;2023-05-03T02:35:31;93674.88;;;10.47;53.44
10466;BME280;5280;42.600;23.556;2023-05-03T02:37:58;93657.75;;;10.28;53.91
10466;BME280;5280;42.600;23.556;2023-05-03T02:40:25;93687.81;;;10.39;54.54
10466;BME280;5280;42.600;23.556;2023-05-03T02:42:52;93677.25;;;10.39;54.97
10466;BME280;5280;42.600;23.556;2023-05-03T02:45:18;93672.06;;;10.37;55.50
10466;BME280;5280;42.600;23.556;2023-05-03T02:47:45;93649.94;;;10.27;54.99
10466;BME280;5280;42.600;23.556;2023-05-03T02:50:13;93663.94;;;10.40;55.00
10466;BME280;5280;42.600;23.556;2023-05-03T02:52:40;93650.22;;;10.35;55.46
10466;BME280;5280;42.600;23.556;2023-05-03T02:55:08;93656.81;;;10.29;55.28
10466;BME280;5280;42.600;23.556;2023-05-03T02:57:35;93652.13;;;10.33;55.42
10466;BME280;5280;42.600;23.556;2023-05-03T03:00:02;93637.81;;;10.24;55.34
10466;BME280;5280;42.600;23.556;2023-05-03T03:02:30;93653.25;;;10.18;55.63
10466;BME280;5280;42.600;23.556;2023-05-03T03:04:57;93648.59;;;10.21;55.40
10466;BME280;5280;42.600;23.556;2023-05-03T03:07:25;93650.28;;;10.22;55.97
10466;BME280;5280;42.600;23.556;2023-05-03T03:09:53;93653.66;;;10.24;55.53
10466;BME280;5280;42.600;23.556;2023-05-03T03:12:20;93659.50;;;10.17;55.28
10466;BME280;5280;42.600;23.556;2023-05-03T03:14:46;93567.75;;;9.60;55.74
10466;BME280;5280;42.600;23.556;2023-05-03T03:17:13;93631.00;;;10.09;56.34
10466;BME280;5280;42.600;23.556;2023-05-03T03:19:40;93658.34;;;10.08;56.77
10466;BME280;5280;42.600;23.556;2023-05-03T03:22:07;93646.22;;;10.06;56.57
10466;BME280;5280;42.600;23.556;2023-05-03T03:24:35;93608.19;;;9.72;56.78
10466;BME280;5280;42.600;23.556;2023-05-03T03:27:01;93653.16;;;10.07;56.80
10466;BME280;5280;42.600;23.556;2023-05-03T03:29:30;93640.28;;;10.02;56.46
10466;BME280;5280;42.600;23.556;2023-05-03T03:31:57;93648.56;;;9.98;57.04
10466;BME280;5280;42.600;23.556;2023-05-03T03:34:23;93650.16;;;10.00;57.81
10466;BME280;5280;42.600;23.556;2023-05-03T03:36:50;93659.28;;;10.07;56.89
10466;BME280;5280;42.600;23.556;2023-05-03T03:39:17;93605.06;;;9.67;57.14
10466;BME280;5280;42.600;23.556;2023-05-03T03:41:45;93666.94;;;9.99;57.63
10466;BME280;5280;42.600;23.556;2023-05-03T03:44:12;93672.31;;;9.98;57.84
10466;BME280;5280;42.600;23.556;2023-05-03T03:46:39;93678.25;;;10.01;57.76
10466;BME280;5280;42.600;23.556;2023-05-03T03:49:06;93680.03;;;10.01;58.12
10466;BME280;5280;42.600;23.556;2023-05-03T03:51:33;93684.97;;;10.05;58.08
10466;BME280;5280;42.600;23.556;2023-05-03T03:54:00;93674.28;;;10.07;58.06
10466;BME280;5280;42.600;23.556;2023-05-03T03:56:26;93698.19;;;10.05;58.38
10466;BME280;5280;42.600;23.556;2023-05-03T03:58:55;93694.56;;;10.06;59.31
10466;BME280;5280;42.600;23.556;2023-05-03T04:01:22;93699.84;;;10.06;58.53
10466;BME280;5280;42.600;23.556;2023-05-03T04:03:48;93685.53;;;9.98;57.87
10466;BME280;5280;42.600;23.556;2023-05-03T04:06:15;93680.56;;;9.93;58.20
10466;BME280;5280;42.600;23.556;2023-05-03T04:08:42;93663.28;;;9.89;58.14
10466;BME280;5280;42.600;23.556;2023-05-03T04:11:09;93694.91;;;10.02;58.71
10466;BME280;5280;42.600;23.556;2023-05-03T04:13:36;93704.41;;;10.04;58.00
10466;BME280;5280;42.600;23.556;2023-05-03T04:16:05;93705.94;;;9.96;59.17
10466;BME280;5280;42.600;23.556;2023-05-03T04:18:32;93722.16;;;10.02;57.65
10466;BME280;5280;42.600;23.556;2023-05-03T04:20:59;93721.13;;;9.92;58.38
10466;BME280;5280;42.600;23.556;2023-05-03T04:23:26;93732.53;;;9.92;58.28
10466;BME280;5280;42.600;23.556;2023-05-03T04:25:53;93743.94;;;9.93;59.31
10466;BME280;5280;42.600;23.556;2023-05-03T04:28:21;93740.88;;;9.86;62.78
10466;BME280;5280;42.600;23.556;2023-05-03T04:30:49;93750.38;;;9.89;64.89
10466;BME280;5280;42.600;23.556;2023-05-03T04:33:17;93756.63;;;9.88;67.01
10466;BME280;5280;42.600;23.556;2023-05-03T04:35:47;93743.97;;;9.68;64.87
10466;BME280;5280;42.600;23.556;2023-05-03T04:38:14;93757.50;;;9.76;66.97
10466;BME280;5280;42.600;23.556;2023-05-03T04:40:40;93747.03;;;9.62;66.29
10466;BME280;5280;42.600;23.556;2023-05-03T04:43:07;93756.88;;;9.60;66.48
10466;BME280;5280;42.600;23.556;2023-05-03T04:45:34;93749.47;;;9.52;67.24
10466;BME280;5280;42.600;23.556;2023-05-03T04:48:01;93772.50;;;9.50;68.45
10466;BME280;5280;42.600;23.556;2023-05-03T04:50:31;93761.38;;;9.32;68.11
10466;BME280;5280;42.600;23.556;2023-05-03T04:52:58;93783.25;;;9.34;69.82
10466;BME280;5280;42.600;23.556;2023-05-03T04:55:25;93780.59;;;9.34;71.96
10466;BME280;5280;42.600;23.556;2023-05-03T04:57:53;93783.56;;;9.30;72.69
10466;BME280;5280;42.600;23.556;2023-05-03T05:00:20;93746.16;;;8.98;70.99
10466;BME280;5280;42.600;23.556;2023-05-03T05:02:48;93809.41;;;9.37;73.28
10466;BME280;5280;42.600;23.556;2023-05-03T05:05:14;93799.50;;;9.41;70.42
10466;BME280;5280;42.600;23.556;2023-05-03T05:07:42;93800.13;;;9.44;70.13
10466;BME280;5280;42.600;23.556;2023-05-03T05:10:09;93809.22;;;9.40;67.05
10466;BME280;5280;42.600;23.556;2023-05-03T05:12:36;93818.72;;;9.56;68.39
10466;BME280;5280;42.600;23.556;2023-05-03T05:15:07;93803.41;;;9.48;67.55
10466;BME280;5280;42.600;23.556;2023-05-03T05:17:34;93823.03;;;9.57;67.17
10466;BME280;5280;42.600;23.556;2023-05-03T05:20:01;93819.03;;;9.64;65.97
10466;BME280;5280;42.600;23.556;2023-05-03T05:22:28;93752.09;;;9.27;66.94
10466;BME280;5280;42.600;23.556;2023-05-03T05:24:56;93756.56;;;9.26;67.97
10466;BME280;5280;42.600;23.556;2023-05-03T05:27:23;93824.94;;;9.67;66.34
10466;BME280;5280;42.600;23.556;2023-05-03T05:29:52;93828.22;;;9.71;67.40
10466;BME280;5280;42.600;23.556;2023-05-03T05:32:19;93785.69;;;9.50;67.55
10466;BME280;5280;42.600;23.556;2023-05-03T05:34:46;93829.47;;;9.78;66.23
10466;BME280;5280;42.600;23.556;2023-05-03T05:37:17;93815.75;;;9.73;67.30
10466;BME280;5280;42.600;23.556;2023-05-03T05:39:44;93789.16;;;9.63;66.51
10466;BME280;5280;42.600;23.556;2023-05-03T05:42:14;93828.97;;;9.85;66.66
10466;BME280;5280;42.600;23.556;2023-05-03T05:44:42;93827.38;;;9.96;65.64
10466;BME280;5280;42.600;23.556;2023-05-03T05:47:08;93817.44;;;9.99;65.54
10466;BME280;5280;42.600;23.556;2023-05-03T05:49:36;93818.66;;;10.06;67.07
10466;BME280;5280;42.600;23.556;2023-05-03T05:52:03;93769.09;;;9.73;65.90
10466;BME280;5280;42.600;23.556;2023-05-03T05:54:30;93801.78;;;10.09;66.02
10466;BME280;5280;42.600;23.556;2023-05-03T05:56:57;93811.28;;;10.24;65.77
10466;BME280;5280;42.600;23.556;2023-05-03T05:59:25;93753.78;;;9.91;64.29
10466;BME280;5280;42.600;23.556;2023-05-03T06:01:54;93793.00;;;10.08;65.12
10466;BME280;5280;42.600;23.556;2023-05-03T06:04:21;93803.69;;;10.19;65.44
10466;BME280;5280;42.600;23.556;2023-05-03T06:06:48;93822.78;;;10.35;65.79
10466;BME280;5280;42.600;23.556;2023-05-03T06:09:15;93823.31;;;10.41;65.41
10466;BME280;5280;42.600;23.556;2023-05-03T06:11:42;93822.13;;;10.45;65.02
10466;BME280;5280;42.600;23.556;2023-05-03T06:14:08;93831.28;;;10.52;64.76
10466;BME280;5280;42.600;23.556;2023-05-03T06:16:37;93817.13;;;10.53;63.92
10466;BME280;5280;42.600;23.556;2023-05-03T06:19:03;93817.09;;;10.65;65.37
10466;BME280;5280;42.600;23.556;2023-05-03T06:21:30;93755.72;;;10.25;64.99
10466;BME280;5280;42.600;23.556;2023-05-03T06:23:57;93818.56;;;10.69;64.45
10466;BME280;5280;42.600;23.556;2023-05-03T06:26:24;93781.25;;;10.38;65.91
10466;BME280;5280;42.600;23.556;2023-05-03T06:28:51;93818.50;;;10.58;65.32
10466;BME280;5280;42.600;23.556;2023-05-03T06:31:17;93813.72;;;10.63;65.73
10466;BME280;5280;42.600;23.556;2023-05-03T06:33:45;93818.16;;;10.63;66.41
10466;BME280;5280;42.600;23.556;2023-05-03T06:36:12;93800.94;;;10.57;66.20
10466;BME280;5280;42.600;23.556;2023-05-03T06:38:39;93806.88;;;10.61;65.03
10466;BME280;5280;42.600;23.556;2023-05-03T06:41:06;93796.00;;;10.53;66.20
10466;BME280;5280;42.600;23.556;2023-05-03T06:43:33;93814.47;;;10.65;66.67
10466;BME280;5280;42.600;23.556;2023-05-03T06:45:59;93814.63;;;10.75;66.42
10466;BME280;5280;42.600;23.556;2023-05-03T06:48:26;93809.28;;;10.88;66.06
10466;BME280;5280;42.600;23.556;2023-05-03T06:50:55;93802.69;;;10.93;67.02
10466;BME280;5280;42.600;23.556;2023-05-03T06:53:24;93806.94;;;10.96;66.41
10466;BME280;5280;42.600;23.556;2023-05-03T06:55:51;93796.97;;;10.99;67.61
10466;BME280;5280;42.600;23.556;2023-05-03T06:58:18;93774.22;;;10.97;68.06
10466;BME280;5280;42.600;23.556;2023-05-03T07:00:45;93802.50;;;11.07;67.53
10466;BME280;5280;42.600;23.556;2023-05-03T07:03:12;93802.31;;;11.10;67.67
10466;BME280;5280;42.600;23.556;2023-05-03T07:05:39;93794.22;;;11.12;67.51
10466;BME280;5280;42.600;23.556;2023-05-03T07:08:07;93792.88;;;11.06;68.57
10466;BME280;5280;42.600;23.556;2023-05-03T07:10:34;93808.31;;;11.12;69.57
10466;BME280;5280;42.600;23.556;2023-05-03T07:13:01;93814.69;;;11.21;68.28
10466;BME280;5280;42.600;23.556;2023-05-03T07:15:28;93807.75;;;11.31;68.71
10466;BME280;5280;42.600;23.556;2023-05-03T07:17:54;93796.31;;;11.19;67.73
10466;BME280;5280;42.600;23.556;2023-05-03T07:20:21;93799.53;;;11.12;68.88
10466;BME280;5280;42.600;23.556;2023-05-03T07:22:48;93817.69;;;11.16;70.67
10466;BME280;5280;42.600;23.556;2023-05-03T07:25:16;93740.13;;;10.81;70.20
10466;BME280;5280;42.600;23.556;2023-05-03T07:27:43;93790.69;;;11.24;70.30
10466;BME280;5280;42.600;23.556;2023-05-03T07:30:10;93784.75;;;11.09;70.06
10466;BME280;5280;42.600;23.556;2023-05-03T07:32:38;93793.09;;;11.27;69.91
10466;BME280;5280;42.600;23.556;2023-05-03T07:35:05;93766.56;;;11.05;70.67
10466;BME280;5280;42.600;23.556;2023-05-03T07:37:32;93769.38;;;11.14;70.11
10466;BME280;5280;42.600;23.556;2023-05-03T07:40:00;93727.16;;;10.78;70.56
10466;BME280;5280;42.600;23.556;2023-05-03T07:42:32;93774.00;;;11.00;72.88
10466;BME280;5280;42.600;23.556;2023-05-03T07:44:59;93787.78;;;11.27;72.84
10466;BME280;5280;42.600;23.556;2023-05-03T07:47:25;93791.44;;;11.37;71.77
10466;BME280;5280;42.600;23.556;2023-05-03T07:49:53;93770.44;;;11.12;72.49
10466;BME280;5280;42.600;23.556;2023-05-03T07:52:20;93792.25;;;11.27;71.22
10466;BME280;5280;42.600;23.556;2023-05-03T07:54:47;93785.34;;;11.13;73.00
10466;BME280;5280;42.600;23.556;2023-05-03T07:57:14;93784.03;;;11.18;73.30
10466;BME280;5280;42.600;23.556;2023-05-03T07:59:43;93781.41;;;11.18;72.67
10466;BME280;5280;42.600;23.556;2023-05-03T08:02:10;93773.84;;;11.25;73.15
10466;BME280;5280;42.600;23.556;2023-05-03T08:04:36;93784.09;;;11.30;73.44
10466;BME280;5280;42.600;23.556;2023-05-03T08:07:04;93768.91;;;11.32;72.98
10466;BME280;5280;42.600;23.556;2023-05-03T08:09:30;93781.72;;;11.49;72.78
10466;BME280;5280;42.600;23.556;2023-05-03T08:11:57;93782.94;;;11.67;74.04
10466;BME280;5280;42.600;23.556;2023-05-03T08:14:24;93784.56;;;11.92;73.44
10466;BME280;5280;42.600;23.556;2023-05-03T08:16:53;93775.31;;;12.08;72.38
10466;BME280;5280;42.600;23.556;2023-05-03T08:19:20;93779.41;;;12.24;71.20
10466;BME280;5280;42.600;23.556;2023-05-03T08:21:47;93782.25;;;12.54;71.30
10466;BME280;5280;42.600;23.556;2023-05-03T08:24:13;93765.91;;;12.81;68.25
10466;BME280;5280;42.600;23.556;2023-05-03T08:26:40;93762.66;;;12.77;67.72
10466;BME280;5280;42.600;23.556;2023-05-03T08:29:10;93760.66;;;12.70;67.77
10466;BME280;5280;42.600;23.556;2023-05-03T08:31:37;93789.13;;;13.00;68.00
10466;BME280;5280;42.600;23.556;2023-05-03T08:34:05;93774.19;;;12.99;67.41
10466;BME280;5280;42.600;23.556;2023-05-03T08:36:34;93778.28;;;12.91;67.84
10466;BME280;5280;42.600;23.556;2023-05-03T08:39:02;93764.78;;;12.94;68.26
10466;BME280;5280;42.600;23.556;2023-05-03T08:41:30;93775.88;;;13.31;67.07
10466;BME280;5280;42.600;23.556;2023-05-03T08:43:59;93763.78;;;13.39;65.75
10466;BME280;5280;42.600;23.556;2023-05-03T08:46:26;93779.06;;;13.67;66.82
10466;BME280;5280;42.600;23.556;2023-05-03T08:48:54;93693.63;;;13.41;66.08
10466;BME280;5280;42.600;23.556;2023-05-03T08:51:23;93774.78;;;14.06;61.99
10466;BME280;5280;42.600;23.556;2023-05-03T08:53:52;93778.94;;;14.19;64.04
10466;BME280;5280;42.600;23.556;2023-05-03T08:56:24;93752.66;;;14.36;62.90
10466;BME280;5280;42.600;23.556;2023-05-03T08:58:51;93754.84;;;14.51;60.60
10466;BME280;5280;42.600;23.556;2023-05-03T09:01:21;93773.13;;;14.75;59.08
10466;BME280;5280;42.600;23.556;2023-05-03T09:03:49;93762.91;;;14.80;59.56
10466;BME280;5280;42.600;23.556;2023-05-03T09:06:22;93765.88;;;15.06;58.27
10466;BME280;5280;42.600;23.556;2023-05-03T09:08:50;93744.03;;;15.12;58.24
10466;BME280;5280;42.600;23.556;2023-05-03T09:11:21;93768.53;;;15.35;58.44
10466;BME280;5280;42.600;23.556;2023-05-03T09:13:49;93760.16;;;15.49;59.13
10466;BME280;5280;42.600;23.556;2023-05-03T09:16:26;93747.97;;;15.56;57.00
10466;BME280;5280;42.600;23.556;2023-05-03T09:18:57;93752.44;;;15.56;56.09
10466;BME280;5280;42.600;23.556;2023-05-03T09:21:26;93749.06;;;15.73;56.77
10466;BME280;5280;42.600;23.556;2023-05-03T09:23:53;93680.38;;;15.47;57.13
10466;BME280;5280;42.600;23.556;2023-05-03T09:26:28;93740.72;;;15.95;55.63
10466;BME280;5280;42.600;23.556;2023-05-03T09:28:57;93749.28;;;16.08;55.83
10466;BME280;5280;42.600;23.556;2023-05-03T09:31:24;93750.06;;;16.18;54.95
10466;BME280;5280;42.600;23.556;2023-05-03T09:33:51;93748.44;;;16.35;55.73
10466;BME280;5280;42.600;23.556;2023-05-03T09:36:19;93745.16;;;16.51;52.63
10466;BME280;5280;42.600;23.556;2023-05-03T09:38:48;93738.09;;;16.59;53.12
10466;BME280;5280;42.600;23.556;2023-05-03T09:41:15;93738.88;;;16.69;52.25
10466;BME280;5280;42.600;23.556;2023-05-03T09:43:51;93736.41;;;16.86;53.20
10466;BME280;5280;42.600;23.556;2023-05-03T09:46:21;93736.53;;;17.11;51.90
10466;BME280;5280;42.600;23.556;2023-05-03T09:48:49;93747.06;;;17.13;51.24
10466;BME280;5280;42.600;23.556;2023-05-03T09:51:19;93745.97;;;17.23;52.10
10466;BME280;5280;42.600;23.556;2023-05-03T09:53:49;93718.66;;;17.30;52.10
10466;BME280;5280;42.600;23.556;2023-05-03T09:56:16;93720.34;;;17.31;51.06
10466;BME280;5280;42.600;23.556;2023-05-03T09:58:45;93714.53;;;17.53;50.41
10466;BME280;5280;42.600;23.556;2023-05-03T10:01:13;93730.59;;;17.79;50.53
10466;BME280;5280;42.600;23.556;2023-05-03T10:03:42;93733.72;;;17.92;49.53
10466;BME280;5280;42.600;23.556;2023-05-03T10:06:17;93728.91;;;17.95;47.81
10466;BME280;5280;42.600;23.556;2023-05-03T10:08:50;93665.56;;;17.70;49.11
10466;BME280;5280;42.600;23.556;2023-05-03T10:11:18;93688.31;;;18.00;49.42
10466;BME280;5280;42.600;23.556;2023-05-03T10:13:45;93689.50;;;18.05;48.53
10466;BME280;5280;42.600;23.556;2023-05-03T10:16:16;93677.09;;;17.96;48.94
10466;BME280;5280;42.600;23.556;2023-05-03T10:18:50;93721.03;;;18.20;49.21
10466;BME280;5280;42.600;23.556;2023-05-03T10:21:24;93710.03;;;18.23;49.93
10466;BME280;5280;42.600;23.556;2023-05-03T10:24:11;93705.03;;;18.28;49.39
10466;BME280;5280;42.600;23.556;2023-05-03T10:26:39;93706.75;;;18.11;49.26
10466;BME280;5280;42.600;23.556;2023-05-03T10:32:34;93704.78;;;18.13;48.89
10466;BME280;5280;42.600;23.556;2023-05-03T10:35:07;93704.56;;;18.06;50.17
10466;BME280;5280;42.600;23.556;2023-05-03T10:37:34;93680.75;;;17.95;50.63
10466;BME280;5280;42.600;23.556;2023-05-03T10:40:08;93709.06;;;17.80;50.45
10466;BME280;5280;42.600;23.556;2023-05-03T10:42:36;93703.09;;;17.86;50.29
10466;BME280;5280;42.600;23.556;2023-05-03T10:45:06;93702.63;;;17.65;51.30
10466;BME280;5280;42.600;23.556;2023-05-03T10:47:34;93666.44;;;17.53;51.77
10466;BME280;5280;42.600;23.556;2023-05-03T10:50:23;93708.34;;;17.70;51.35
10466;BME280;5280;42.600;23.556;2023-05-03T10:52:50;93704.63;;;17.63;51.11
10466;BME280;5280;42.600;23.556;2023-05-03T10:55:19;93706.97;;;17.66;52.15
10466;BME280;5280;42.600;23.556;2023-05-03T10:57:47;93686.88;;;17.44;51.83
10466;BME280;5280;42.600;23.556;2023-05-03T11:00:21;93714.31;;;17.46;51.53
10466;BME280;5280;42.600;23.556;2023-05-03T11:03:20;93711.78;;;17.45;52.59
10466;BME280;5280;42.600;23.556;2023-05-03T11:05:53;93719.50;;;17.48;53.17
10466;BME280;5280;42.600;23.556;2023-05-03T11:08:21;93690.06;;;17.22;52.74
10466;BME280;5280;42.600;23.556;2023-05-03T11:10:56;93711.72;;;17.19;54.49
10466;BME280;5280;42.600;23.556;2023-05-03T11:13:24;93692.03;;;17.02;53.83
10466;BME280;5280;42.600;23.556;2023-05-03T11:15:52;93695.63;;;17.11;54.39
10466;BME280;5280;42.600;23.556;2023-05-03T11:18:20;93689.28;;;16.94;56.08
10466;BME280;5280;42.600;23.556;2023-05-03T11:20:47;93693.56;;;16.87;55.22
10466;BME280;5280;42.600;23.556;2023-05-03T11:23:14;93710.69;;;16.85;55.92
10466;BME280;5280;42.600;23.556;2023-05-03T11:25:41;93705.81;;;16.80;54.20
10466;BME280;5280;42.600;23.556;2023-05-03T11:28:09;93723.44;;;16.73;56.77
10466;BME280;5280;42.600;23.556;2023-05-03T11:30:36;93716.19;;;16.56;55.70
10466;BME280;5280;42.600;23.556;2023-05-03T11:33:03;93710.66;;;16.40;56.62
10466;BME280;5280;42.600;23.556;2023-05-03T11:35:30;93713.59;;;16.19;57.43
10466;BME280;5280;42.600;23.556;2023-05-03T11:37:57;93695.25;;;16.33;59.07
10466;BME280;5280;42.600;23.556;2023-05-03T11:40:24;93696.75;;;16.18;57.26
10466;BME280;5280;42.600;23.556;2023-05-03T11:42:53;93709.00;;;16.29;59.29
10466;BME280;5280;42.600;23.556;2023-05-03T11:45:24;93697.63;;;16.36;58.69
10466;BME280;5280;42.600;23.556;2023-05-03T11:47:51;93667.63;;;16.25;59.55
10466;BME280;5280;42.600;23.556;2023-05-03T11:50:26;93680.44;;;16.49;56.62
10466;BME280;5280;42.600;23.556;2023-05-03T11:52:53;93661.72;;;16.31;57.81
10466;BME280;5280;42.600;23.556;2023-05-03T11:55:20;93656.75;;;16.18;58.35
10466;BME280;5280;42.600;23.556;2023-05-03T11:57:47;93687.00;;;16.27;59.49
10466;BME280;5280;42.600;23.556;2023-05-03T12:00:15;93663.91;;;16.18;58.67
10466;BME280;5280;42.600;23.556;2023-05-03T12:02:46;93663.72;;;15.92;60.07
10466;BME280;5280;42.600;23.556;2023-05-03T12:05:14;93650.72;;;15.79;60.87
10466;BME280;5280;42.600;23.556;2023-05-03T12:07:41;93656.56;;;15.92;62.09
10466;BME280;5280;42.600;23.556;2023-05-03T12:10:14;93666.44;;;16.10;61.39
10466;BME280;5280;42.600;23.556;2023-05-03T12:12:56;93648.09;;;16.07;61.25
10466;BME280;5280;42.600;23.556;2023-05-03T12:15:27;93669.75;;;16.21;60.72
10466;BME280;5280;42.600;23.556;2023-05-03T12:17:57;93638.34;;;16.15;60.74
10466;BME280;5280;42.600;23.556;2023-05-03T12:20:25;93677.91;;;16.20;59.68
10466;BME280;5280;42.600;23.556;2023-05-03T12:22:56;93649.94;;;15.97;60.73
10466;BME280;5280;42.600;23.556;2023-05-03T12:25:24;93669.16;;;16.00;60.55
10466;BME280;5280;42.600;23.556;2023-05-03T12:27:51;93678.19;;;15.80;62.21
10466;BME280;5280;42.600;23.556;2023-05-03T12:30:19;93672.75;;;15.81;62.14
10466;BME280;5280;42.600;23.556;2023-05-03T12:32:46;93669.19;;;15.54;63.13
10466;BME280;5280;42.600;23.556;2023-05-03T12:35:15;93669.72;;;15.47;63.92
10466;BME280;5280;42.600;23.556;2023-05-03T12:37:42;93656.00;;;15.33;65.39
10466;BME280;5280;42.600;23.556;2023-05-03T12:40:10;93659.66;;;15.22;65.89
10466;BME280;5280;42.600;23.556;2023-05-03T12:42:38;93670.59;;;15.09;68.93
10466;BME280;5280;42.600;23.556;2023-05-03T12:45:06;93670.91;;;14.97;70.05
10466;BME280;5280;42.600;23.556;2023-05-03T12:47:33;93659.72;;;14.84;71.92
10466;BME280;5280;42.600;23.556;2023-05-03T12:50:01;93658.16;;;14.72;73.74
10466;BME280;5280;42.600;23.556;2023-05-03T12:52:29;93655.06;;;14.76;76.39
10466;BME280;5280;42.600;23.556;2023-05-03T12:54:58;93605.03;;;14.22;76.56
10466;BME280;5280;42.600;23.556;2023-05-03T12:57:25;93640.50;;;14.61;77.72
10466;BME280;5280;42.600;23.556;2023-05-03T12:59:52;93647.38;;;14.44;77.33
10466;BME280;5280;42.600;23.556;2023-05-03T13:02:19;93654.28;;;14.36;77.28
10466;BME280;5280;42.600;23.556;2023-05-03T13:04:46;93656.34;;;14.13;80.51
10466;BME280;5280;42.600;23.556;2023-05-03T13:07:19;93655.47;;;14.03;81.19
10466;BME280;5280;42.600;23.556;2023-05-03T13:09:48;93657.81;;;13.96;85.28
10466;BME280;5280;42.600;23.556;2023-05-03T13:12:14;93665.91;;;13.85;85.76